• Join FlightAware (Why Join?)
  • Login
  • US Flag 
06:15AM EDT


 

Airport Tracker/Info


-or-


 

Live Flight TrackerFlight Track Log ✈ SKW4664 ✈ 06-Jun-2013 ✈ KFSD - KMSP

Flight Track Log - Related Links

Times and Time Zones

All times are in EDT time to prevent confusion due to time zone crossing. See the SKW4664 flight status page for this flight to view local times or setup timezone preferences in your user account.

Time Position Orientation Groundspeed Altitude Reporting Facility
EDT Latitude Longitude Course Direction KTS MPH feet Rate Location/Type
12:37PM 43.6053 -96.7189 52° Northeast 155 178 2,800  Level Minneapolis Center
12:38PM 43.6294 -96.6556 62° Northeast 178 205 4,500 1,980 Climbing Minneapolis Center
12:40PM 43.7727 -96.3755 51° Northeast  Level FlightAware Approximate
12:40PM 43.6736 -96.5767 52° Northeast 230 265 6,900  Level Minneapolis Center
12:41PM 43.8416 -96.2544 53° Northeast  Level FlightAware Approximate
12:41PM 43.7197 -96.4908 53° Northeast 260 299 9,600  Level Minneapolis Center
12:42PM 43.9086 -96.1314 53° Northeast  Level FlightAware Approximate
12:42PM 43.7811 -96.3833 52° Northeast 282 325 12,000  Level Minneapolis Center
12:43PM 43.9766 -96.0091 52° Northeast  Level FlightAware Approximate
12:43PM 43.8378 -96.2817 52° Northeast 315 362 13,900  Level Minneapolis Center
12:44PM 43.8958 -96.1783 52° Northeast 340 391 16,000 1,740 Climbing Minneapolis Center
12:45PM 43.9536 -96.0728 53° Northeast 345 397 17,600 1,380 Climbing Minneapolis Center
12:46PM 44.0136 -95.9644 52° Northeast 355 409 18,900 1,380 Climbing Minneapolis Center
12:47PM 44.0872 -95.8297 53° Northeast 369 425 20,500 1,320 Climbing Minneapolis Center
12:48PM 44.1353 -95.6986 63° Northeast 380 437 21,700 1,080 Climbing Minneapolis Center
12:49PM 44.1856 -95.5642 62° Northeast 390 449 22,800 600 Climbing Minneapolis Center
12:50PM 44.2369 -95.4244 63° Northeast 403 464 23,000 60 Climbing Minneapolis Center
12:51PM 44.2922 -95.2744 63° Northeast 427 491 23,000  Level Minneapolis Center
12:52PM 44.3597 -95.0922 63° Northeast 440 506 23,000 -480 Level Minneapolis Center
12:53PM 44.4142 -94.9400 63° Northeast 440 506 22,100 -1,620 Descending Minneapolis Center
12:54PM 44.4658 -94.7978 63° Northeast 420 483 19,700 -2,220 Descending Minneapolis Center
12:55PM 44.5139 -94.6631 63° Northeast 396 456 17,600 -2,040 Descending Minneapolis Center
12:56PM 44.5606 -94.5303 64° Northeast 392 451 15,500 -2,220 Descending Minneapolis Center
12:57PM 44.6169 -94.3714 63° Northeast 378 435 13,000 -2,100 Descending Minneapolis Center
12:58PM 44.6622 -94.2456 63° Northeast 363 418 11,200 -1,020 Descending Minneapolis Center
12:59PM 44.7006 -94.1272 65° Northeast 333 383 11,000 -120 Descending Minneapolis Center
01:00PM 44.7267 -94.0058 73° East 325 374 11,000  Level Minneapolis Center
01:01PM 44.7533 -93.8839 73° East 326 375 11,000  Level Minneapolis Center
01:02PM 44.7808 -93.7628 72° East 325 374 11,000  Level Minneapolis Center
01:03PM 44.8128 -93.6189 73° East 320 368 11,000 -720 Level Minneapolis Center
01:04PM 44.8367 -93.5103 73° East 292 336 9,500 -1,500 Descending Minneapolis Center
01:05PM 44.8572 -93.4086 74° East 271 312 8,000 -780 Descending Minneapolis Center
01:06PM 44.8192 -93.3186 121° Southeast 268 308 8,000  Level Minneapolis Center
01:07PM 44.7806 -93.2358 123° Southeast 250 288 8,000  Level Minneapolis Center
01:09PM 44.7428 -93.1553 123° Southeast 234 269 8,000 -660 Level Minneapolis Center
01:10PM 44.7078 -93.0811 124° Southeast 228 262 6,700 -1,020 Descending Minneapolis Center
01:11PM 44.6717 -93.0083 125° Southeast 228 262 6,000 -840 Descending Minneapolis Center
01:12PM 44.7014 -92.9242 64° Northeast 224 258 5,000 -540 Descending Minneapolis Center
01:13PM 44.7469 -92.9286 356° North 186 214 5,000 -360 Level Minneapolis Center
01:14PM 44.7783 -92.9836 309° West 191 220 4,300 -720 Descending Minneapolis Center